createdAt,value
2022-11-28T00:01:34.002Z,2.60
2022-11-28T00:04:06.069Z,2.60
2022-11-28T00:06:49.123Z,2.60
2022-11-28T00:09:19.385Z,2.60
2022-11-28T00:11:48.569Z,2.60
2022-11-28T00:14:17.926Z,2.60
2022-11-28T00:16:46.131Z,2.60
2022-11-28T00:19:13.851Z,2.60
2022-11-28T00:21:41.990Z,2.60
2022-11-28T00:24:09.734Z,2.60
2022-11-28T00:26:40.840Z,2.60
2022-11-28T00:29:09.517Z,2.60
2022-11-28T00:31:42.725Z,2.60
2022-11-28T00:34:12.514Z,2.60
2022-11-28T00:36:39.832Z,2.60
2022-11-28T00:39:07.133Z,2.60
2022-11-28T00:41:35.241Z,2.70
2022-11-28T00:44:02.060Z,2.60
2022-11-28T00:46:28.961Z,2.60
2022-11-28T00:48:57.803Z,2.60
2022-11-28T00:51:29.318Z,2.60
2022-11-28T00:53:58.485Z,2.60
2022-11-28T00:56:29.812Z,2.60
2022-11-28T00:58:58.468Z,2.50
2022-11-28T01:01:33.007Z,2.50
2022-11-28T01:04:03.581Z,2.50
2022-11-28T01:06:37.719Z,2.50
2022-11-28T01:09:13.753Z,2.50
2022-11-28T01:11:42.778Z,2.40
2022-11-28T01:14:11.578Z,2.40
2022-11-28T01:16:39.269Z,2.40
2022-11-28T01:19:07.377Z,2.30
2022-11-28T01:21:35.403Z,2.30
2022-11-28T01:24:02.180Z,2.30
2022-11-28T01:26:30.733Z,2.30
2022-11-28T01:28:59.947Z,2.30
2022-11-28T01:31:30.096Z,2.20
2022-11-28T01:33:57.595Z,2.20
2022-11-28T01:36:25.055Z,2.20
2022-11-28T01:38:52.127Z,2.20
2022-11-28T01:41:23.854Z,2.20
2022-11-28T01:44:00.023Z,2.20
2022-11-28T01:46:27.925Z,2.10
2022-11-28T01:48:59.710Z,2.10
2022-11-28T01:51:27.642Z,2.10
2022-11-28T01:53:55.686Z,2.10
2022-11-28T01:56:30.850Z,2.00
2022-11-28T01:59:04.297Z,2.10
2022-11-28T02:01:31.494Z,2.00
2022-11-28T02:04:00.078Z,2.10
2022-11-28T02:06:28.273Z,2.10
2022-11-28T02:08:56.253Z,2.20
2022-11-28T02:11:50.077Z,2.20
2022-11-28T02:14:48.446Z,2.20
2022-11-28T02:18:20.918Z,2.30
2022-11-28T02:21:27.396Z,2.30
2022-11-28T02:24:49.808Z,2.30
2022-11-28T02:28:02.218Z,2.30
2022-11-28T02:30:51.476Z,2.30
2022-11-28T02:33:27.317Z,2.20
2022-11-28T02:36:08.747Z,2.20
2022-11-28T02:39:09.648Z,2.20
2022-11-28T02:42:07.071Z,2.20
2022-11-28T02:44:58.946Z,2.20
2022-11-28T02:47:42.394Z,2.30
2022-11-28T02:50:22.124Z,2.30
2022-11-28T02:52:59.060Z,2.30
2022-11-28T02:55:27.608Z,2.40
2022-11-28T02:57:55.627Z,2.40
2022-11-28T03:00:39.159Z,2.50
2022-11-28T03:03:24.358Z,2.50
2022-11-28T03:06:06.013Z,2.50
2022-11-28T03:08:47.699Z,2.50
2022-11-28T03:11:35.659Z,2.50
2022-11-28T03:14:48.616Z,2.50
2022-11-28T03:17:27.622Z,2.60
2022-11-28T03:20:19.291Z,2.60
2022-11-28T03:23:50.886Z,2.60
2022-11-28T03:26:50.453Z,2.70
2022-11-28T03:29:48.236Z,2.70
2022-11-28T03:32:31.660Z,2.70
2022-11-28T03:35:17.295Z,2.70
2022-11-28T03:38:00.096Z,2.70
2022-11-28T03:40:36.295Z,2.70
2022-11-28T03:43:14.792Z,2.80
2022-11-28T03:45:49.065Z,2.70
2022-11-28T03:48:33.820Z,2.80
2022-11-28T03:51:12.257Z,2.80
2022-11-28T03:53:56.250Z,2.80
2022-11-28T03:56:48.146Z,2.80
2022-11-28T03:59:28.354Z,2.90
2022-11-28T04:02:14.277Z,2.90
2022-11-28T04:05:14.004Z,2.90
2022-11-28T04:07:49.910Z,2.90
2022-11-28T04:10:32.481Z,2.90
2022-11-28T04:13:32.024Z,2.90
2022-11-28T04:16:11.093Z,2.90
2022-11-28T04:18:55.432Z,2.90
2022-11-28T04:21:34.045Z,2.90
2022-11-28T04:24:10.469Z,2.90
2022-11-28T04:26:46.734Z,2.90
2022-11-28T04:29:19.511Z,3.00
2022-11-28T04:31:50.711Z,2.90
2022-11-28T04:34:21.085Z,3.00
2022-11-28T04:36:50.182Z,3.00
2022-11-28T04:39:23.593Z,3.00
2022-11-28T04:41:58.693Z,3.00
2022-11-28T04:44:40.783Z,3.00
2022-11-28T04:47:08.083Z,2.90
2022-11-28T04:49:34.913Z,2.90
2022-11-28T04:52:14.525Z,2.90
2022-11-28T04:55:17.103Z,2.90
2022-11-28T04:57:57.272Z,2.90
2022-11-28T05:00:25.902Z,2.90
2022-11-28T05:02:54.984Z,2.90
2022-11-28T05:05:25.972Z,2.90
2022-11-28T05:07:54.145Z,2.90
2022-11-28T05:10:21.580Z,2.90
2022-11-28T05:12:48.404Z,2.90
2022-11-28T05:15:19.229Z,2.90
2022-11-28T05:17:47.026Z,2.90
2022-11-28T05:20:14.121Z,2.90
2022-11-28T05:22:40.992Z,2.90
2022-11-28T05:25:08.341Z,2.90
2022-11-28T05:27:35.814Z,2.90
2022-11-28T05:30:03.688Z,2.90
2022-11-28T05:32:31.249Z,2.80
2022-11-28T05:34:58.742Z,2.80
2022-11-28T05:37:26.566Z,2.90
2022-11-28T05:39:53.819Z,2.90
2022-11-28T05:42:21.051Z,2.90
2022-11-28T05:44:48.110Z,2.80
2022-11-28T05:47:15.847Z,2.80
2022-11-28T05:49:43.596Z,2.90
2022-11-28T05:52:10.602Z,2.80
2022-11-28T05:54:37.470Z,2.90
2022-11-28T05:57:07.161Z,2.80
2022-11-28T05:59:34.626Z,2.80
2022-11-28T06:02:01.528Z,2.90
2022-11-28T06:04:28.585Z,2.90
2022-11-28T06:06:55.405Z,2.90
2022-11-28T06:09:25.628Z,2.90
2022-11-28T06:11:53.112Z,2.90
2022-11-28T06:14:20.132Z,2.90
2022-11-28T06:16:47.017Z,2.90
2022-11-28T06:19:13.893Z,2.90
2022-11-28T06:21:40.960Z,2.90
2022-11-28T06:24:09.629Z,2.90
2022-11-28T06:26:36.807Z,2.90
2022-11-28T06:29:04.547Z,2.90
2022-11-28T06:31:31.700Z,2.90
2022-11-28T06:33:59.200Z,2.90
2022-11-28T06:36:27.026Z,2.90
2022-11-28T06:38:54.258Z,3.00
2022-11-28T06:41:22.997Z,3.00
2022-11-28T06:43:50.433Z,3.60
2022-11-28T06:46:21.017Z,3.00
2022-11-28T06:48:50.948Z,3.00
2022-11-28T06:51:19.103Z,2.90
2022-11-28T06:53:46.049Z,3.00
2022-11-28T06:56:16.892Z,3.00
2022-11-28T06:58:45.364Z,3.00
2022-11-28T07:01:19.434Z,2.90
2022-11-28T07:03:47.639Z,2.90
2022-11-28T07:06:18.516Z,3.00
2022-11-28T07:08:46.246Z,3.00
2022-11-28T07:11:19.579Z,3.00
2022-11-28T07:13:47.575Z,3.00
2022-11-28T07:16:28.206Z,3.00
2022-11-28T07:18:57.362Z,3.00
2022-11-28T07:21:25.641Z,3.00
2022-11-28T07:23:53.264Z,3.00
2022-11-28T07:26:21.812Z,3.00
2022-11-28T07:28:49.733Z,3.00
2022-11-28T07:31:21.687Z,3.00
2022-11-28T07:33:51.298Z,3.00
2022-11-28T07:36:20.919Z,3.10
2022-11-28T07:38:50.147Z,3.10
2022-11-28T07:41:20.421Z,3.10
2022-11-28T07:43:53.275Z,3.10
2022-11-28T07:46:20.426Z,3.10
2022-11-28T07:48:48.752Z,3.10
2022-11-28T07:51:29.539Z,3.10
2022-11-28T07:54:04.695Z,3.20
2022-11-28T07:57:04.472Z,3.20
2022-11-28T07:59:22.489Z,3.20
2022-11-28T08:01:53.166Z,3.20
2022-11-28T08:04:20.074Z,3.20
2022-11-28T08:06:47.000Z,3.30
2022-11-28T08:09:13.855Z,3.30
2022-11-28T08:11:41.301Z,3.30
2022-11-28T08:14:08.220Z,3.30
2022-11-28T08:16:37.036Z,3.30
2022-11-28T08:19:04.095Z,3.30
2022-11-28T08:21:37.745Z,3.40
2022-11-28T08:24:06.198Z,3.40
2022-11-28T08:26:34.065Z,3.40
2022-11-28T08:29:02.948Z,3.40
2022-11-28T08:31:37.045Z,3.50
2022-11-28T08:34:08.574Z,3.50
2022-11-28T08:36:35.465Z,3.60
2022-11-28T08:41:57.604Z,3.60
2022-11-28T08:44:26.093Z,3.60
2022-11-28T08:46:54.165Z,3.60
2022-11-28T08:49:20.967Z,3.60
2022-11-28T08:51:47.753Z,3.70
2022-11-28T08:54:15.065Z,3.70
2022-11-28T08:56:41.786Z,3.70
2022-11-28T08:59:09.493Z,3.80
2022-11-28T09:01:36.435Z,3.80
2022-11-28T09:04:04.607Z,3.80
2022-11-28T09:06:31.568Z,3.90
2022-11-28T09:08:58.783Z,3.90
2022-11-28T09:11:25.683Z,3.90
2022-11-28T09:13:52.551Z,4.00
2022-11-28T09:16:19.546Z,4.00
2022-11-28T09:21:27.785Z,4.20
2022-11-28T09:23:56.460Z,4.20
2022-11-28T09:26:25.342Z,4.20
2022-11-28T09:28:53.539Z,4.20
2022-11-28T09:31:21.098Z,4.20
2022-11-28T09:33:49.744Z,4.20
2022-11-28T09:36:20.315Z,4.20
2022-11-28T09:38:47.744Z,4.20
2022-11-28T09:41:56.324Z,4.30
2022-11-28T09:44:42.946Z,4.30
2022-11-28T09:47:21.591Z,4.40
2022-11-28T09:50:20.782Z,4.40
2022-11-28T09:52:58.405Z,4.40
2022-11-28T09:56:00.001Z,4.40
2022-11-28T09:58:50.100Z,4.50
2022-11-28T10:01:32.049Z,4.50
2022-11-28T10:04:24.018Z,4.60
2022-11-28T10:07:08.303Z,4.60
2022-11-28T10:09:42.663Z,4.60
2022-11-28T10:12:53.530Z,4.60
2022-11-28T10:15:45.874Z,4.70
2022-11-28T10:18:40.075Z,4.70
2022-11-28T10:21:40.914Z,4.70
2022-11-28T10:24:17.796Z,4.70
2022-11-28T10:26:54.390Z,4.80
2022-11-28T10:30:16.455Z,4.80
2022-11-28T10:32:52.256Z,4.90
2022-11-28T10:36:22.411Z,4.90
2022-11-28T10:38:50.073Z,4.90
2022-11-28T10:41:38.953Z,5.00
2022-11-28T10:44:25.806Z,5.00
2022-11-28T10:47:16.998Z,5.00
2022-11-28T10:50:32.499Z,5.10
2022-11-28T10:53:18.642Z,5.10
2022-11-28T10:56:21.252Z,5.20
2022-11-28T10:58:54.899Z,5.20
2022-11-28T11:01:21.922Z,5.20
2022-11-28T11:03:49.614Z,5.20
2022-11-28T11:06:16.458Z,5.30
2022-11-28T11:08:47.668Z,5.30
2022-11-28T11:11:34.741Z,5.30
2022-11-28T11:14:08.818Z,5.30
2022-11-28T11:16:57.275Z,5.40
2022-11-28T11:19:35.772Z,5.50
2022-11-28T11:22:28.517Z,5.50
2022-11-28T11:25:06.542Z,5.50
2022-11-28T11:27:36.647Z,5.50
2022-11-28T11:30:23.621Z,5.40
2022-11-28T11:32:52.996Z,5.40
2022-11-28T11:35:25.913Z,5.40
2022-11-28T11:38:26.902Z,5.50
2022-11-28T11:40:53.655Z,5.50
2022-11-28T11:43:29.324Z,5.50
2022-11-28T11:46:12.957Z,5.50
2022-11-28T11:48:43.465Z,5.60
2022-11-28T11:51:32.764Z,5.70
2022-11-28T11:54:05.284Z,5.70
2022-11-28T11:56:39.937Z,5.70
2022-11-28T11:59:24.634Z,5.90
2022-11-28T12:02:00.450Z,5.90
2022-11-28T12:04:47.268Z,6.10
2022-11-28T12:07:58.511Z,6.20
2022-11-28T12:10:34.304Z,6.20
2022-11-28T12:13:02.793Z,6.20
2022-11-28T12:15:45.603Z,6.10
2022-11-28T12:18:46.766Z,6.10
2022-11-28T12:21:50.816Z,6.10
2022-11-28T12:24:48.609Z,6.00
2022-11-28T12:28:11.574Z,6.00
2022-11-28T12:30:56.159Z,5.90
2022-11-28T12:33:47.736Z,5.90
2022-11-28T12:36:38.835Z,6.30
2022-11-28T12:39:40.632Z,5.80
2022-11-28T12:42:25.112Z,5.80
2022-11-28T12:45:15.905Z,5.80
2022-11-28T12:48:30.485Z,5.80
2022-11-28T12:51:33.670Z,5.80
2022-11-28T12:54:30.477Z,5.90
2022-11-28T12:57:11.077Z,5.90
2022-11-28T13:00:08.716Z,5.90
2022-11-28T13:02:53.415Z,5.90
2022-11-28T13:05:38.357Z,5.90
2022-11-28T13:08:48.759Z,5.90
2022-11-28T13:11:56.208Z,5.80
2022-11-28T13:14:46.050Z,5.90
2022-11-28T13:17:46.028Z,5.90
2022-11-28T13:20:41.974Z,5.90
2022-11-28T13:23:34.693Z,5.90
2022-11-28T13:26:17.929Z,5.90
2022-11-28T13:29:25.374Z,5.80
2022-11-28T13:32:20.798Z,5.80
2022-11-28T13:34:49.382Z,5.70
2022-11-28T13:40:30.499Z,5.60
2022-11-28T13:43:08.481Z,5.60
2022-11-28T13:45:46.948Z,5.60
2022-11-28T13:49:05.926Z,5.50
2022-11-28T13:51:30.863Z,5.50
2022-11-28T13:54:17.325Z,5.50
2022-11-28T13:57:23.767Z,5.50
2022-11-28T14:00:05.049Z,5.50
2022-11-28T14:02:42.052Z,5.50
2022-11-28T14:05:26.548Z,5.40
2022-11-28T14:07:56.131Z,5.50
2022-11-28T14:10:49.619Z,5.40
2022-11-28T14:13:44.980Z,5.40
2022-11-28T14:16:35.015Z,5.40
2022-11-28T14:19:42.017Z,5.40
2022-11-28T14:22:59.351Z,5.30
2022-11-28T14:25:32.218Z,5.30
2022-11-28T14:28:06.620Z,5.30
2022-11-28T14:30:40.433Z,5.30
2022-11-28T14:33:22.447Z,5.30
2022-11-28T14:35:57.800Z,5.30
2022-11-28T14:38:30.418Z,5.20
2022-11-28T14:43:46.571Z,5.20
2022-11-28T14:46:16.125Z,5.20
2022-11-28T14:49:02.956Z,5.30
2022-11-28T14:51:48.145Z,5.50
2022-11-28T14:54:37.254Z,5.20
2022-11-28T14:57:18.534Z,5.20
2022-11-28T14:59:46.848Z,5.10
2022-11-28T15:02:13.740Z,5.10
2022-11-28T15:04:59.380Z,5.10
2022-11-28T15:08:04.560Z,5.00
2022-11-28T15:11:10.802Z,5.00
2022-11-28T15:14:14.426Z,5.00
2022-11-28T15:16:50.548Z,5.00
2022-11-28T15:19:27.924Z,5.00
2022-11-28T15:21:56.280Z,5.00
2022-11-28T15:24:35.622Z,4.90
2022-11-28T15:27:08.450Z,4.90
2022-11-28T15:29:36.865Z,4.90
2022-11-28T15:32:05.338Z,4.90
2022-11-28T15:34:35.486Z,4.90
2022-11-28T15:37:15.197Z,4.80
2022-11-28T15:39:46.565Z,4.80
2022-11-28T15:42:34.952Z,4.80
2022-11-28T15:45:25.091Z,4.80
2022-11-28T15:47:54.220Z,4.80
2022-11-28T15:50:29.661Z,4.80
2022-11-28T15:53:20.738Z,4.70
2022-11-28T15:55:47.817Z,4.70
2022-11-28T15:58:28.579Z,4.70
2022-11-28T16:01:15.840Z,4.70
2022-11-28T16:03:55.215Z,4.70
2022-11-28T16:06:26.548Z,4.70
2022-11-28T16:09:01.245Z,4.60
2022-11-28T16:11:31.987Z,4.60
2022-11-28T16:14:08.360Z,4.60
2022-11-28T16:16:38.943Z,4.70
2022-11-28T16:19:25.779Z,4.60
2022-11-28T16:22:06.482Z,4.60
2022-11-28T16:24:46.397Z,4.60
2022-11-28T16:27:29.420Z,4.60
2022-11-28T16:29:56.627Z,4.60
2022-11-28T16:32:39.009Z,4.60
2022-11-28T16:35:12.326Z,4.60
2022-11-28T16:37:39.895Z,4.50
2022-11-28T16:40:17.001Z,4.50
2022-11-28T16:42:53.549Z,4.50
2022-11-28T16:45:33.443Z,4.50
2022-11-28T16:48:09.251Z,4.50
2022-11-28T16:50:37.594Z,4.50
2022-11-28T16:53:05.287Z,4.50
2022-11-28T16:55:32.397Z,4.50
2022-11-28T16:58:13.619Z,4.50
2022-11-28T17:00:45.968Z,4.50
2022-11-28T17:03:44.230Z,4.40
2022-11-28T17:06:34.348Z,4.40
2022-11-28T17:09:02.358Z,4.40
2022-11-28T17:11:34.240Z,4.40
2022-11-28T17:14:02.697Z,4.40
2022-11-28T17:16:37.067Z,4.40
2022-11-28T17:19:04.970Z,4.40
2022-11-28T17:21:50.726Z,4.40
2022-11-28T17:24:23.031Z,4.40
2022-11-28T17:26:57.296Z,4.40
2022-11-28T17:29:29.322Z,4.40
2022-11-28T17:31:58.789Z,4.40
2022-11-28T17:34:30.702Z,4.40
2022-11-28T17:37:00.034Z,4.40
2022-11-28T17:39:28.059Z,4.60
2022-11-28T17:41:57.193Z,4.40
2022-11-28T17:44:37.530Z,4.40
2022-11-28T17:47:04.737Z,4.40
2022-11-28T17:49:32.858Z,4.40
2022-11-28T17:52:07.422Z,4.40
2022-11-28T17:54:35.017Z,4.40
2022-11-28T17:57:06.921Z,4.30
2022-11-28T17:59:36.044Z,4.30
2022-11-28T18:02:07.158Z,4.30
2022-11-28T18:04:39.105Z,4.30
2022-11-28T18:07:09.915Z,4.30
2022-11-28T18:09:40.960Z,4.40
2022-11-28T18:12:08.048Z,4.40
2022-11-28T18:14:39.513Z,4.40
2022-11-28T18:17:07.650Z,4.00
2022-11-28T18:19:34.856Z,4.40
2022-11-28T18:22:01.628Z,4.40
2022-11-28T18:24:28.353Z,4.40
2022-11-28T18:26:55.065Z,4.40
2022-11-28T18:29:21.970Z,4.40
2022-11-28T18:31:48.797Z,4.40
2022-11-28T18:34:16.621Z,4.40
2022-11-28T18:36:43.715Z,4.30
2022-11-28T18:39:14.946Z,4.40
2022-11-28T18:41:41.951Z,4.40
2022-11-28T18:44:11.084Z,4.40
2022-11-28T18:46:39.351Z,4.40
2022-11-28T18:49:06.140Z,4.40
2022-11-28T18:51:35.502Z,4.40
2022-11-28T18:54:05.449Z,4.40
2022-11-28T18:56:32.376Z,4.30
2022-11-28T18:58:59.333Z,4.40
2022-11-28T19:01:30.537Z,4.30
2022-11-28T19:04:08.696Z,4.40
2022-11-28T19:06:39.149Z,4.40
2022-11-28T19:09:09.755Z,4.40
2022-11-28T19:11:36.800Z,4.40
2022-11-28T19:14:06.524Z,4.40
2022-11-28T19:16:37.550Z,4.40
2022-11-28T19:19:06.274Z,4.40
2022-11-28T19:21:35.471Z,4.40
2022-11-28T19:24:03.199Z,4.40
2022-11-28T19:26:33.783Z,4.40
2022-11-28T19:29:02.078Z,4.40
2022-11-28T19:31:32.625Z,4.40
2022-11-28T19:34:03.619Z,4.40
2022-11-28T19:36:40.923Z,4.40
2022-11-28T19:39:12.403Z,4.40
2022-11-28T19:41:39.201Z,4.30
2022-11-28T19:44:06.226Z,4.30
2022-11-28T19:46:35.686Z,4.30
2022-11-28T19:49:07.623Z,4.30
2022-11-28T19:51:35.339Z,4.40
2022-11-28T19:54:03.969Z,4.30
2022-11-28T19:56:32.453Z,4.40
2022-11-28T19:58:59.999Z,4.30
2022-11-28T20:01:27.903Z,4.40
2022-11-28T20:03:54.964Z,4.60
2022-11-28T20:06:26.465Z,4.40
2022-11-28T20:08:55.345Z,4.30
2022-11-28T20:11:28.949Z,4.30
2022-11-28T20:14:04.016Z,4.40
2022-11-28T20:16:32.561Z,4.40
2022-11-28T20:19:01.319Z,4.40
2022-11-28T20:21:29.340Z,4.30
2022-11-28T20:24:05.231Z,4.30
2022-11-28T20:26:38.253Z,4.40
2022-11-28T20:29:06.823Z,4.30
2022-11-28T20:31:41.786Z,4.30
2022-11-28T20:34:08.802Z,4.40
2022-11-28T20:36:36.339Z,4.40
2022-11-28T20:39:05.402Z,4.40
2022-11-28T20:41:32.553Z,4.40
2022-11-28T20:44:00.883Z,5.20
2022-11-28T20:46:31.572Z,4.30
2022-11-28T20:49:01.976Z,4.30
2022-11-28T20:51:32.566Z,4.30
2022-11-28T20:54:00.914Z,4.30
2022-11-28T20:56:31.662Z,4.30
2022-11-28T20:59:00.611Z,4.40
2022-11-28T21:01:33.213Z,4.40
2022-11-28T21:04:05.870Z,4.40
2022-11-28T21:06:35.139Z,4.40
2022-11-28T21:09:03.755Z,4.30
2022-11-28T21:11:55.671Z,4.40
2022-11-28T21:14:19.201Z,4.30
2022-11-28T21:16:46.409Z,4.30
2022-11-28T21:19:13.488Z,4.30
2022-11-28T21:21:40.930Z,4.30
2022-11-28T21:24:12.730Z,4.30
2022-11-28T21:26:46.373Z,4.30
2022-11-28T21:29:17.061Z,4.30
2022-11-28T21:31:46.456Z,4.30
2022-11-28T21:34:15.526Z,4.50
2022-11-28T21:36:43.083Z,4.30
2022-11-28T21:39:19.706Z,4.30
2022-11-28T21:41:47.109Z,4.30
2022-11-28T21:44:13.995Z,4.30
2022-11-28T21:46:40.855Z,4.30
2022-11-28T21:49:07.915Z,4.30
2022-11-28T21:51:34.728Z,4.30
2022-11-28T21:54:02.310Z,4.30
2022-11-28T21:56:29.131Z,4.30
2022-11-28T21:58:56.242Z,4.30
2022-11-28T22:01:23.090Z,4.30
2022-11-28T22:03:50.278Z,4.30
2022-11-28T22:06:24.012Z,4.30
2022-11-28T22:08:52.348Z,4.30
2022-11-28T22:11:21.318Z,4.30
2022-11-28T22:13:49.159Z,4.30
2022-11-28T22:16:28.357Z,4.30
2022-11-28T22:18:59.486Z,4.30
2022-11-28T22:24:13.867Z,4.20
2022-11-28T22:26:40.743Z,4.20
2022-11-28T22:29:07.722Z,4.20
2022-11-28T22:31:36.136Z,4.00
2022-11-28T22:34:03.066Z,4.20
2022-11-28T22:36:31.255Z,4.20
2022-11-28T22:38:58.505Z,4.10
2022-11-28T22:41:29.292Z,4.10
2022-11-28T22:44:00.199Z,4.10
2022-11-28T22:46:27.180Z,4.10
2022-11-28T22:48:54.041Z,4.10
2022-11-28T22:51:25.044Z,4.10
2022-11-28T22:53:58.305Z,4.50
2022-11-28T22:56:25.949Z,4.10
2022-11-28T22:58:52.906Z,4.10
2022-11-28T23:01:27.457Z,4.10
2022-11-28T23:03:55.597Z,4.10
2022-11-28T23:06:26.354Z,4.10
2022-11-28T23:08:54.345Z,4.10
2022-11-28T23:11:24.809Z,4.10
2022-11-28T23:13:52.812Z,4.10
2022-11-28T23:16:28.941Z,4.10
2022-11-28T23:19:03.587Z,4.10
2022-11-28T23:21:34.233Z,4.10
2022-11-28T23:24:01.379Z,4.10
2022-11-28T23:26:31.081Z,4.10
2022-11-28T23:29:03.512Z,4.00
2022-11-28T23:31:33.603Z,4.00
2022-11-28T23:34:02.618Z,4.10
2022-11-28T23:36:40.068Z,4.00
2022-11-28T23:39:21.890Z,4.00
2022-11-28T23:41:50.287Z,4.00
2022-11-28T23:44:19.519Z,3.90
2022-11-28T23:46:48.243Z,4.00
2022-11-28T23:49:15.718Z,3.90
2022-11-28T23:51:42.877Z,3.90
2022-11-28T23:54:11.258Z,3.90
2022-11-28T23:56:41.464Z,3.90
2022-11-28T23:59:11.576Z,3.90
